sensor_id;sensor_type;location;lat;lon;timestamp;pressure;altitude;pressure_sealevel;temperature;humidity
74678;BME280;67324;56.326;43.982;2023-03-14T00:01:57;100852.13;;;22.26;31.78
74678;BME280;67324;56.326;43.982;2023-03-14T00:04:23;100848.66;;;22.25;31.87
74678;BME280;67324;56.326;43.982;2023-03-14T00:06:49;100850.34;;;22.26;31.74
74678;BME280;67324;56.326;43.982;2023-03-14T00:09:16;100852.97;;;22.26;31.78
74678;BME280;67324;56.326;43.982;2023-03-14T00:11:42;100853.09;;;22.25;31.72
74678;BME280;67324;56.326;43.982;2023-03-14T00:14:08;100855.59;;;22.26;31.73
74678;BME280;67324;56.326;43.982;2023-03-14T00:16:34;100856.56;;;22.25;31.79
74678;BME280;67324;56.326;43.982;2023-03-14T00:19:00;100851.16;;;22.27;31.83
74678;BME280;67324;56.326;43.982;2023-03-14T00:21:26;100855.59;;;22.26;31.81
74678;BME280;67324;56.326;43.982;2023-03-14T00:23:52;100869.75;;;22.25;31.85
74678;BME280;67324;56.326;43.982;2023-03-14T00:26:20;100871.41;;;22.26;31.76
74678;BME280;67324;56.326;43.982;2023-03-14T00:28:47;100866.16;;;22.26;31.74
74678;BME280;67324;56.326;43.982;2023-03-14T00:31:16;100874.06;;;22.26;31.71
74678;BME280;67324;56.326;43.982;2023-03-14T00:33:43;100872.22;;;22.27;31.78
74678;BME280;67324;56.326;43.982;2023-03-14T00:36:11;100874.88;;;22.27;31.74
74678;BME280;67324;56.326;43.982;2023-03-14T00:38:56;100868.09;;;22.24;31.71
74678;BME280;67324;56.326;43.982;2023-03-14T00:41:23;100875.00;;;22.25;31.76
74678;BME280;67324;56.326;43.982;2023-03-14T00:43:50;100877.66;;;22.25;31.79
74678;BME280;67324;56.326;43.982;2023-03-14T00:46:16;100879.31;;;22.26;31.73
74678;BME280;67324;56.326;43.982;2023-03-14T00:48:44;100882.91;;;22.25;31.72
74678;BME280;67324;56.326;43.982;2023-03-14T00:51:10;100888.19;;;22.25;31.70
74678;BME280;67324;56.326;43.982;2023-03-14T00:53:38;100895.13;;;22.26;31.71
74678;BME280;67324;56.326;43.982;2023-03-14T00:56:06;100895.94;;;22.27;31.73
74678;BME280;67324;56.326;43.982;2023-03-14T00:58:32;100897.75;;;22.26;31.66
74678;BME280;67324;56.326;43.982;2023-03-14T01:00:58;100890.81;;;22.25;31.79
74678;BME280;67324;56.326;43.982;2023-03-14T01:03:24;100902.19;;;22.26;31.71
74678;BME280;67324;56.326;43.982;2023-03-14T01:05:50;100901.22;;;22.27;31.74
74678;BME280;67324;56.326;43.982;2023-03-14T01:08:16;100904.81;;;22.26;31.68
74678;BME280;67324;56.326;43.982;2023-03-14T01:10:42;100911.91;;;22.25;31.81
74678;BME280;67324;56.326;43.982;2023-03-14T01:13:27;100915.34;;;22.26;31.70
74678;BME280;67324;56.326;43.982;2023-03-14T01:15:54;100918.00;;;22.26;31.81
74678;BME280;67324;56.326;43.982;2023-03-14T01:18:19;100918.84;;;22.26;31.72
74678;BME280;67324;56.326;43.982;2023-03-14T01:20:45;100921.63;;;22.25;31.71
74678;BME280;67324;56.326;43.982;2023-03-14T01:23:11;100924.25;;;22.25;31.72
74678;BME280;67324;56.326;43.982;2023-03-14T01:25:41;100922.44;;;22.25;31.65
74678;BME280;67324;56.326;43.982;2023-03-14T01:28:08;100928.41;;;22.27;31.74
74678;BME280;67324;56.326;43.982;2023-03-14T01:30:34;100924.13;;;22.26;31.70
74678;BME280;67324;56.326;43.982;2023-03-14T01:33:00;100919.81;;;22.25;31.74
74678;BME280;67324;56.326;43.982;2023-03-14T01:35:26;100930.34;;;22.25;31.68
74678;BME280;67324;56.326;43.982;2023-03-14T01:37:54;100931.16;;;22.26;31.64
74678;BME280;67324;56.326;43.982;2023-03-14T01:40:21;100937.28;;;22.26;31.73
74678;BME280;67324;56.326;43.982;2023-03-14T01:42:56;100939.94;;;22.26;31.67
74678;BME280;67324;56.326;43.982;2023-03-14T01:48:07;100952.41;;;22.24;31.71
74678;BME280;67324;56.326;43.982;2023-03-14T01:50:33;100955.06;;;22.24;31.81
74678;BME280;67324;56.326;43.982;2023-03-14T01:52:59;100957.69;;;22.24;31.57
74678;BME280;67324;56.326;43.982;2023-03-14T01:55:25;100956.03;;;22.23;31.64
74678;BME280;67324;56.326;43.982;2023-03-14T01:57:54;100967.25;;;22.25;31.73
74678;BME280;67324;56.326;43.982;2023-03-14T02:00:22;100967.25;;;22.25;31.76
74678;BME280;67324;56.326;43.982;2023-03-14T02:02:52;100974.31;;;22.25;31.74
74678;BME280;67324;56.326;43.982;2023-03-14T02:05:29;100971.69;;;22.25;31.71
74678;BME280;67324;56.326;43.982;2023-03-14T02:08:02;100976.13;;;22.24;31.71
74678;BME280;67324;56.326;43.982;2023-03-14T02:10:41;100983.06;;;22.25;31.70
74678;BME280;67324;56.326;43.982;2023-03-14T02:13:10;100976.97;;;22.25;31.73
74678;BME280;67324;56.326;43.982;2023-03-14T02:15:55;100990.13;;;22.25;31.68
74678;BME280;67324;56.326;43.982;2023-03-14T02:18:42;100983.06;;;22.25;31.73
74678;BME280;67324;56.326;43.982;2023-03-14T02:27:18;100993.75;;;22.24;31.68
74678;BME280;67324;56.326;43.982;2023-03-14T02:29:53;100994.59;;;22.24;31.70
74678;BME280;67324;56.326;43.982;2023-03-14T02:32:20;100991.25;;;22.22;31.71
74678;BME280;67324;56.326;43.982;2023-03-14T02:34:55;100994.72;;;22.23;31.72
74678;BME280;67324;56.326;43.982;2023-03-14T02:37:24;100991.25;;;22.22;31.71
74678;BME280;67324;56.326;43.982;2023-03-14T02:39:52;100986.81;;;22.23;31.74
74678;BME280;67324;56.326;43.982;2023-03-14T02:42:19;100998.19;;;22.23;31.69
74678;BME280;67324;56.326;43.982;2023-03-14T02:47:43;100997.22;;;22.24;31.74
74678;BME280;67324;56.326;43.982;2023-03-14T02:50:18;100999.16;;;22.22;31.73
74678;BME280;67324;56.326;43.982;2023-03-14T02:52:46;101000.00;;;22.23;31.64
74678;BME280;67324;56.326;43.982;2023-03-14T02:55:12;100994.59;;;22.24;31.67
74678;BME280;67324;56.326;43.982;2023-03-14T02:57:40;100992.09;;;22.23;31.72
74678;BME280;67324;56.326;43.982;2023-03-14T03:00:24;100995.53;;;22.23;31.65
74678;BME280;67324;56.326;43.982;2023-03-14T03:02:51;101001.66;;;22.24;31.63
74678;BME280;67324;56.326;43.982;2023-03-14T03:05:17;101007.75;;;22.24;31.68
74678;BME280;67324;56.326;43.982;2023-03-14T03:07:43;101004.31;;;22.24;31.73
74678;BME280;67324;56.326;43.982;2023-03-14T03:10:09;101004.31;;;22.24;31.65
74678;BME280;67324;56.326;43.982;2023-03-14T03:12:36;101004.97;;;22.26;31.61
74678;BME280;67324;56.326;43.982;2023-03-14T03:15:02;101005.94;;;22.25;31.67
74678;BME280;67324;56.326;43.982;2023-03-14T03:17:29;101013.03;;;22.24;31.62
74678;BME280;67324;56.326;43.982;2023-03-14T03:19:54;101011.34;;;22.23;31.71
74678;BME280;67324;56.326;43.982;2023-03-14T03:22:20;101017.31;;;22.25;31.70
74678;BME280;67324;56.326;43.982;2023-03-14T03:24:46;101019.13;;;22.25;31.70
74678;BME280;67324;56.326;43.982;2023-03-14T03:27:12;101015.66;;;22.24;31.67
74678;BME280;67324;56.326;43.982;2023-03-14T03:29:38;101014.69;;;22.25;31.70
74678;BME280;67324;56.326;43.982;2023-03-14T03:32:04;101019.00;;;22.26;31.62
74678;BME280;67324;56.326;43.982;2023-03-14T03:34:29;101016.34;;;22.26;31.63
74678;BME280;67324;56.326;43.982;2023-03-14T03:36:56;101010.41;;;22.24;31.63
74678;BME280;67324;56.326;43.982;2023-03-14T03:39:22;101009.41;;;22.25;31.64
74678;BME280;67324;56.326;43.982;2023-03-14T03:41:48;101019.94;;;22.25;31.58
74678;BME280;67324;56.326;43.982;2023-03-14T03:44:15;101020.78;;;22.26;31.67
74678;BME280;67324;56.326;43.982;2023-03-14T03:46:40;101028.84;;;22.24;31.72
74678;BME280;67324;56.326;43.982;2023-03-14T03:49:07;101026.91;;;22.26;31.66
74678;BME280;67324;56.326;43.982;2023-03-14T03:51:33;101015.66;;;22.24;31.65
74678;BME280;67324;56.326;43.982;2023-03-14T03:53:59;101019.94;;;22.25;31.38
74678;BME280;67324;56.326;43.982;2023-03-14T03:56:31;101014.84;;;22.24;31.60
74678;BME280;67324;56.326;43.982;2023-03-14T03:58:57;101015.50;;;22.26;31.62
74678;BME280;67324;56.326;43.982;2023-03-14T04:01:23;101007.75;;;22.24;31.66
74678;BME280;67324;56.326;43.982;2023-03-14T04:03:52;100998.88;;;22.25;31.61
74678;BME280;67324;56.326;43.982;2023-03-14T04:06:18;100988.31;;;22.25;31.58
74678;BME280;67324;56.326;43.982;2023-03-14T04:08:46;100987.50;;;22.25;31.58
74678;BME280;67324;56.326;43.982;2023-03-14T04:11:41;100984.88;;;22.25;31.61
74678;BME280;67324;56.326;43.982;2023-03-14T04:14:19;100968.22;;;22.24;31.63
74678;BME280;67324;56.326;43.982;2023-03-14T04:16:47;100967.25;;;22.25;31.58
74678;BME280;67324;56.326;43.982;2023-03-14T04:19:15;100956.69;;;22.25;31.62
74678;BME280;67324;56.326;43.982;2023-03-14T04:21:41;100951.44;;;22.25;31.61
74678;BME280;67324;56.326;43.982;2023-03-14T04:24:11;100955.06;;;22.24;31.58
74678;BME280;67324;56.326;43.982;2023-03-14T04:26:55;100963.94;;;22.23;31.58
74678;BME280;67324;56.326;43.982;2023-03-14T04:29:21;100966.56;;;22.23;31.59
74678;BME280;67324;56.326;43.982;2023-03-14T04:31:48;100965.59;;;22.24;31.59
74678;BME280;67324;56.326;43.982;2023-03-14T04:34:14;100984.88;;;22.25;31.59
74678;BME280;67324;56.326;43.982;2023-03-14T04:36:46;100984.88;;;22.25;31.61
74678;BME280;67324;56.326;43.982;2023-03-14T04:39:17;100998.88;;;22.25;31.61
74678;BME280;67324;56.326;43.982;2023-03-14T04:41:51;101001.50;;;22.25;31.62
74678;BME280;67324;56.326;43.982;2023-03-14T04:44:18;101010.41;;;22.24;31.66
74678;BME280;67324;56.326;43.982;2023-03-14T04:46:43;101005.25;;;22.23;31.61
74678;BME280;67324;56.326;43.982;2023-03-14T04:49:10;101012.72;;;22.27;31.62
74678;BME280;67324;56.326;43.982;2023-03-14T04:51:37;101012.72;;;22.27;31.57
74678;BME280;67324;56.326;43.982;2023-03-14T04:54:03;101013.72;;;22.26;31.55
74678;BME280;67324;56.326;43.982;2023-03-14T04:56:29;101015.38;;;22.27;31.56
74678;BME280;67324;56.326;43.982;2023-03-14T04:58:56;100996.91;;;22.27;31.59
74678;BME280;67324;56.326;43.982;2023-03-14T05:01:22;101002.19;;;22.27;31.56
74678;BME280;67324;56.326;43.982;2023-03-14T05:04:14;100991.66;;;22.27;31.55
74678;BME280;67324;56.326;43.982;2023-03-14T05:07:02;100983.06;;;22.25;31.57
74678;BME280;67324;56.326;43.982;2023-03-14T05:09:54;100982.91;;;22.27;31.62
74678;BME280;67324;56.326;43.982;2023-03-14T05:12:39;100990.00;;;22.26;31.56
74678;BME280;67324;56.326;43.982;2023-03-14T05:15:23;100987.38;;;22.26;31.62
74678;BME280;67324;56.326;43.982;2023-03-14T05:18:08;100980.28;;;22.27;31.54
74678;BME280;67324;56.326;43.982;2023-03-14T05:20:54;100983.75;;;22.27;31.53
74678;BME280;67324;56.326;43.982;2023-03-14T05:23:28;100975.16;;;22.25;31.57
74678;BME280;67324;56.326;43.982;2023-03-14T05:25:57;100984.72;;;22.26;31.61
74678;BME280;67324;56.326;43.982;2023-03-14T05:28:37;100973.34;;;22.26;31.55
74678;BME280;67324;56.326;43.982;2023-03-14T05:31:12;100991.66;;;22.27;31.53
74678;BME280;67324;56.326;43.982;2023-03-14T05:33:54;100992.47;;;22.28;31.54
74678;BME280;67324;56.326;43.982;2023-03-14T05:36:38;100995.09;;;22.28;31.50
74678;BME280;67324;56.326;43.982;2023-03-14T05:39:21;100988.03;;;22.28;31.61
74678;BME280;67324;56.326;43.982;2023-03-14T05:42:07;101001.38;;;22.27;31.55
74678;BME280;67324;56.326;43.982;2023-03-14T05:44:52;100988.88;;;22.29;31.60
74678;BME280;67324;56.326;43.982;2023-03-14T05:47:45;100988.88;;;22.29;31.56
74678;BME280;67324;56.326;43.982;2023-03-14T05:50:31;100982.63;;;22.30;31.57
74678;BME280;67324;56.326;43.982;2023-03-14T05:53:23;100985.25;;;22.30;31.55
74678;BME280;67324;56.326;43.982;2023-03-14T05:56:09;100981.78;;;22.29;31.51
74678;BME280;67324;56.326;43.982;2023-03-14T05:58:58;100958.06;;;22.29;31.48
74678;BME280;67324;56.326;43.982;2023-03-14T06:01:29;100956.41;;;22.28;31.47
74678;BME280;67324;56.326;43.982;2023-03-14T06:04:07;100950.00;;;22.31;31.49
74678;BME280;67324;56.326;43.982;2023-03-14T06:06:33;100943.09;;;22.30;31.51
74678;BME280;67324;56.326;43.982;2023-03-14T06:09:00;100946.53;;;22.30;31.50
74678;BME280;67324;56.326;43.982;2023-03-14T06:11:26;100932.41;;;22.31;31.51
74678;BME280;67324;56.326;43.982;2023-03-14T06:13:52;100932.41;;;22.31;31.49
74678;BME280;67324;56.326;43.982;2023-03-14T06:16:17;100927.94;;;22.32;31.49
74678;BME280;67324;56.326;43.982;2023-03-14T06:18:43;100923.50;;;22.32;31.52
74678;BME280;67324;56.326;43.982;2023-03-14T06:21:12;100917.28;;;22.33;31.49
74678;BME280;67324;56.326;43.982;2023-03-14T06:23:38;100910.31;;;22.32;31.47
74678;BME280;67324;56.326;43.982;2023-03-14T06:26:05;100902.41;;;22.32;31.45
74678;BME280;67324;56.326;43.982;2023-03-14T06:28:31;100890.91;;;22.33;31.42
74678;BME280;67324;56.326;43.982;2023-03-14T06:31:00;100883.00;;;22.33;31.41
74678;BME280;67324;56.326;43.982;2023-03-14T06:33:28;100873.28;;;22.34;31.45
74678;BME280;67324;56.326;43.982;2023-03-14T06:35:54;100883.97;;;22.32;31.45
74678;BME280;67324;56.326;43.982;2023-03-14T06:38:20;100898.66;;;22.35;31.39
74678;BME280;67324;56.326;43.982;2023-03-14T06:40:49;100900.47;;;22.34;31.48
74678;BME280;67324;56.326;43.982;2023-03-14T06:43:25;100893.38;;;22.35;31.39
74678;BME280;67324;56.326;43.982;2023-03-14T06:46:09;100865.38;;;22.34;31.45
74678;BME280;67324;56.326;43.982;2023-03-14T06:48:38;100861.06;;;22.33;31.33
74678;BME280;67324;56.326;43.982;2023-03-14T06:51:04;100868.03;;;22.34;31.39
74678;BME280;67324;56.326;43.982;2023-03-14T06:53:30;100861.75;;;22.35;31.45
74678;BME280;67324;56.326;43.982;2023-03-14T06:55:58;100866.19;;;22.34;31.40
74678;BME280;67324;56.326;43.982;2023-03-14T06:58:26;100860.13;;;22.34;31.39
74678;BME280;67324;56.326;43.982;2023-03-14T07:00:53;100853.84;;;22.35;31.39
74678;BME280;67324;56.326;43.982;2023-03-14T07:03:23;100851.22;;;22.35;31.38
74678;BME280;67324;56.326;43.982;2023-03-14T07:06:08;100840.97;;;22.32;31.42
74678;BME280;67324;56.326;43.982;2023-03-14T07:08:34;100840.00;;;22.33;31.41
74678;BME280;67324;56.326;43.982;2023-03-14T07:11:00;100837.34;;;22.33;31.38
74678;BME280;67324;56.326;43.982;2023-03-14T07:13:27;100828.47;;;22.34;31.26
74678;BME280;67324;56.326;43.982;2023-03-14T07:16:01;100826.00;;;22.32;31.50
74678;BME280;67324;56.326;43.982;2023-03-14T07:18:45;100816.28;;;22.33;31.50
74678;BME280;67324;56.326;43.982;2023-03-14T07:21:11;100832.94;;;22.33;31.42
74678;BME280;67324;56.326;43.982;2023-03-14T07:23:38;100828.47;;;22.34;31.35
74678;BME280;67324;56.326;43.982;2023-03-14T07:26:06;100820.72;;;22.32;31.37
74678;BME280;67324;56.326;43.982;2023-03-14T07:28:33;100825.03;;;22.33;31.44
74678;BME280;67324;56.326;43.982;2023-03-14T07:31:10;100819.59;;;22.35;31.43
74678;BME280;67324;56.326;43.982;2023-03-14T07:33:37;100816.13;;;22.34;31.41
74678;BME280;67324;56.326;43.982;2023-03-14T07:36:04;100816.00;;;22.36;31.33
74678;BME280;67324;56.326;43.982;2023-03-14T07:38:30;100809.88;;;22.35;31.40
74678;BME280;67324;56.326;43.982;2023-03-14T07:41:28;100798.34;;;22.36;31.38
74678;BME280;67324;56.326;43.982;2023-03-14T07:44:13;100780.06;;;22.35;31.38
74678;BME280;67324;56.326;43.982;2023-03-14T07:46:39;100777.28;;;22.36;31.38
74678;BME280;67324;56.326;43.982;2023-03-14T07:49:05;100767.69;;;22.35;31.40
74678;BME280;67324;56.326;43.982;2023-03-14T07:51:31;100763.28;;;22.36;31.40
74678;BME280;67324;56.326;43.982;2023-03-14T07:53:57;100750.25;;;22.34;31.40
74678;BME280;67324;56.326;43.982;2023-03-14T07:56:23;100758.81;;;22.36;31.33
74678;BME280;67324;56.326;43.982;2023-03-14T07:58:48;100759.66;;;22.37;31.32
74678;BME280;67324;56.326;43.982;2023-03-14T08:01:14;100741.19;;;22.37;31.31
74678;BME280;67324;56.326;43.982;2023-03-14T08:03:40;100736.06;;;22.35;31.38
74678;BME280;67324;56.326;43.982;2023-03-14T08:06:06;100722.75;;;22.37;31.33
74678;BME280;67324;56.326;43.982;2023-03-14T08:08:32;100709.56;;;22.37;31.39
74678;BME280;67324;56.326;43.982;2023-03-14T08:11:04;100718.28;;;22.38;31.41
74678;BME280;67324;56.326;43.982;2023-03-14T08:13:30;100700.84;;;22.36;31.33
74678;BME280;67324;56.326;43.982;2023-03-14T08:15:55;100701.66;;;22.37;31.43
74678;BME280;67324;56.326;43.982;2023-03-14T08:18:21;100715.84;;;22.36;31.36
74678;BME280;67324;56.326;43.982;2023-03-14T08:20:47;100696.38;;;22.37;31.35
74678;BME280;67324;56.326;43.982;2023-03-14T08:23:13;100691.94;;;22.38;31.32
74678;BME280;67324;56.326;43.982;2023-03-14T08:25:39;100665.75;;;22.36;31.34
74678;BME280;67324;56.326;43.982;2023-03-14T08:28:04;100660.50;;;22.36;31.33
74678;BME280;67324;56.326;43.982;2023-03-14T08:30:30;100649.94;;;22.36;31.39
74678;BME280;67324;56.326;43.982;2023-03-14T08:32:57;100659.50;;;22.37;31.35
74678;BME280;67324;56.326;43.982;2023-03-14T08:35:24;100649.78;;;22.38;31.34
74678;BME280;67324;56.326;43.982;2023-03-14T08:37:50;100638.41;;;22.37;31.30
74678;BME280;67324;56.326;43.982;2023-03-14T08:40:18;100635.63;;;22.39;31.35
74678;BME280;67324;56.326;43.982;2023-03-14T08:42:44;100648.94;;;22.37;31.35
74678;BME280;67324;56.326;43.982;2023-03-14T08:45:14;100624.41;;;22.36;31.38
74678;BME280;67324;56.326;43.982;2023-03-14T08:47:43;100622.44;;;22.39;31.32
74678;BME280;67324;56.326;43.982;2023-03-14T08:50:10;100597.88;;;22.38;31.33
74678;BME280;67324;56.326;43.982;2023-03-14T08:52:36;100619.81;;;22.39;31.31
74678;BME280;67324;56.326;43.982;2023-03-14T08:55:04;100597.06;;;22.38;31.31
74678;BME280;67324;56.326;43.982;2023-03-14T08:57:29;100600.50;;;22.38;31.32
74678;BME280;67324;56.326;43.982;2023-03-14T08:59:56;100602.19;;;22.39;31.34
74678;BME280;67324;56.326;43.982;2023-03-14T09:02:23;100598.72;;;22.39;31.35
74678;BME280;67324;56.326;43.982;2023-03-14T09:04:50;100595.25;;;22.38;31.34
74678;BME280;67324;56.326;43.982;2023-03-14T09:07:16;100584.69;;;22.38;31.32
74678;BME280;67324;56.326;43.982;2023-03-14T09:09:41;100581.25;;;22.38;31.35
74678;BME280;67324;56.326;43.982;2023-03-14T09:12:07;100587.34;;;22.38;31.34
74678;BME280;67324;56.326;43.982;2023-03-14T09:14:33;100586.38;;;22.39;31.35
74678;BME280;67324;56.326;43.982;2023-03-14T09:16:59;100578.47;;;22.39;31.28
74678;BME280;67324;56.326;43.982;2023-03-14T09:19:25;100597.72;;;22.40;31.30
74678;BME280;67324;56.326;43.982;2023-03-14T09:21:51;100585.56;;;22.39;31.29
74678;BME280;67324;56.326;43.982;2023-03-14T09:24:17;100585.38;;;22.40;31.32
74678;BME280;67324;56.326;43.982;2023-03-14T09:26:43;100589.00;;;22.39;31.28
74678;BME280;67324;56.326;43.982;2023-03-14T09:29:09;100590.66;;;22.40;31.37
74678;BME280;67324;56.326;43.982;2023-03-14T09:31:34;100581.91;;;22.40;31.29
74678;BME280;67324;56.326;43.982;2023-03-14T09:34:01;100575.00;;;22.39;31.26
74678;BME280;67324;56.326;43.982;2023-03-14T09:36:27;100578.28;;;22.41;31.36
74678;BME280;67324;56.326;43.982;2023-03-14T09:38:53;100578.28;;;22.41;31.30
74678;BME280;67324;56.326;43.982;2023-03-14T09:41:25;100587.03;;;22.41;31.25
74678;BME280;67324;56.326;43.982;2023-03-14T09:44:14;100585.56;;;22.39;31.40
74678;BME280;67324;56.326;43.982;2023-03-14T09:46:44;100590.50;;;22.42;31.30
74678;BME280;67324;56.326;43.982;2023-03-14T09:49:21;100584.41;;;22.41;31.27
74678;BME280;67324;56.326;43.982;2023-03-14T09:51:52;100590.50;;;22.42;31.37
74678;BME280;67324;56.326;43.982;2023-03-14T09:54:40;100583.41;;;22.42;31.28
74678;BME280;67324;56.326;43.982;2023-03-14T09:57:18;100572.03;;;22.42;31.24
74678;BME280;67324;56.326;43.982;2023-03-14T09:59:45;100574.69;;;22.42;31.32
74678;BME280;67324;56.326;43.982;2023-03-14T10:02:20;100571.03;;;22.43;31.36
74678;BME280;67324;56.326;43.982;2023-03-14T10:04:49;100565.78;;;22.43;31.27
74678;BME280;67324;56.326;43.982;2023-03-14T10:07:18;100561.50;;;22.42;31.28
74678;BME280;67324;56.326;43.982;2023-03-14T10:09:49;100523.59;;;22.43;31.27
74678;BME280;67324;56.326;43.982;2023-03-14T10:12:17;100525.41;;;22.42;31.36
74678;BME280;67324;56.326;43.982;2023-03-14T10:14:52;100512.09;;;22.44;31.29
74678;BME280;67324;56.326;43.982;2023-03-14T10:17:20;100511.25;;;22.43;31.32
74678;BME280;67324;56.326;43.982;2023-03-14T10:19:56;100523.59;;;22.43;31.31
74678;BME280;67324;56.326;43.982;2023-03-14T10:22:24;100516.69;;;22.42;31.33
74678;BME280;67324;56.326;43.982;2023-03-14T10:24:55;100520.81;;;22.44;31.32
74678;BME280;67324;56.326;43.982;2023-03-14T10:27:28;100526.91;;;22.45;31.29
74678;BME280;67324;56.326;43.982;2023-03-14T10:30:02;100514.72;;;22.44;31.21
74678;BME280;67324;56.326;43.982;2023-03-14T10:32:35;100525.28;;;22.44;31.29
74678;BME280;67324;56.326;43.982;2023-03-14T10:37:59;100512.09;;;22.44;31.27
74678;BME280;67324;56.326;43.982;2023-03-14T10:40:50;100509.47;;;22.44;31.33
74678;BME280;67324;56.326;43.982;2023-03-14T10:43:35;100499.72;;;22.44;31.30
74678;BME280;67324;56.326;43.982;2023-03-14T10:46:09;100487.72;;;22.42;31.31
74678;BME280;67324;56.326;43.982;2023-03-14T10:48:55;100471.06;;;22.41;31.29
74678;BME280;67324;56.326;43.982;2023-03-14T10:51:26;100469.06;;;22.43;31.22
74678;BME280;67324;56.326;43.982;2023-03-14T10:54:04;100476.97;;;22.43;31.26
74678;BME280;67324;56.326;43.982;2023-03-14T10:56:38;100456.75;;;22.44;31.30
74678;BME280;67324;56.326;43.982;2023-03-14T10:59:07;100469.06;;;22.43;31.29
74678;BME280;67324;56.326;43.982;2023-03-14T11:07:41;100469.94;;;22.44;31.25
74678;BME280;67324;56.326;43.982;2023-03-14T11:10:19;100468.09;;;22.44;31.32
74678;BME280;67324;56.326;43.982;2023-03-14T11:26:41;100445.34;;;22.43;31.20
74678;BME280;67324;56.326;43.982;2023-03-14T11:29:30;100435.66;;;22.44;31.22
74678;BME280;67324;56.326;43.982;2023-03-14T11:32:03;100442.72;;;22.43;31.25
74678;BME280;67324;56.326;43.982;2023-03-14T11:37:35;100436.47;;;22.44;31.25
74678;BME280;67324;56.326;43.982;2023-03-14T11:42:30;100437.44;;;22.43;31.26
74678;BME280;67324;56.326;43.982;2023-03-14T11:45:00;100427.75;;;22.44;31.20
74678;BME280;67324;56.326;43.982;2023-03-14T11:47:30;100432.19;;;22.43;31.29
74678;BME280;67324;56.326;43.982;2023-03-14T11:52:36;100418.03;;;22.44;31.27
74678;BME280;67324;56.326;43.982;2023-03-14T11:55:27;100413.72;;;22.43;31.29
74678;BME280;67324;56.326;43.982;2023-03-14T11:58:25;100410.13;;;22.44;31.20
74678;BME280;67324;56.326;43.982;2023-03-14T12:00:51;100414.56;;;22.44;31.25
74678;BME280;67324;56.326;43.982;2023-03-14T12:03:29;100414.56;;;22.44;31.27
74678;BME280;67324;56.326;43.982;2023-03-14T12:06:16;100422.63;;;22.42;31.28
74678;BME280;67324;56.326;43.982;2023-03-14T12:08:56;100405.81;;;22.43;31.18
74678;BME280;67324;56.326;43.982;2023-03-14T12:14:54;100403.19;;;22.43;31.23
74678;BME280;67324;56.326;43.982;2023-03-14T12:17:41;100408.63;;;22.42;31.22
74678;BME280;67324;56.326;43.982;2023-03-14T12:25:24;100413.72;;;22.43;31.21
74678;BME280;67324;56.326;43.982;2023-03-14T12:35:44;100400.53;;;22.43;31.21
74678;BME280;67324;56.326;43.982;2023-03-14T12:41:42;100373.38;;;22.43;31.32
74678;BME280;67324;56.326;43.982;2023-03-14T12:46:53;100358.56;;;22.42;31.18
74678;BME280;67324;56.326;43.982;2023-03-14T12:49:19;100361.00;;;22.43;31.25
74678;BME280;67324;56.326;43.982;2023-03-14T12:51:45;100361.00;;;22.43;31.13
74678;BME280;67324;56.326;43.982;2023-03-14T12:59:30;100348.03;;;22.42;31.33
74678;BME280;67324;56.326;43.982;2023-03-14T13:02:49;100342.56;;;22.43;31.28
74678;BME280;67324;56.326;43.982;2023-03-14T13:05:19;100347.69;;;22.45;31.22
74678;BME280;67324;56.326;43.982;2023-03-14T13:10:30;100367.63;;;22.47;31.26
74678;BME280;67324;56.326;43.982;2023-03-14T13:13:24;100353.44;;;22.48;31.27
74678;BME280;67324;56.326;43.982;2023-03-14T13:15:58;100336.66;;;22.49;31.10
74678;BME280;67324;56.326;43.982;2023-03-14T13:18:43;100334.16;;;22.48;31.26
74678;BME280;67324;56.326;43.982;2023-03-14T13:21:22;100336.66;;;22.49;31.20
74678;BME280;67324;56.326;43.982;2023-03-14T13:24:01;100329.56;;;22.50;31.14
74678;BME280;67324;56.326;43.982;2023-03-14T13:26:42;100341.09;;;22.49;31.21
74678;BME280;67324;56.326;43.982;2023-03-14T13:29:29;100343.56;;;22.50;31.18
74678;BME280;67324;56.326;43.982;2023-03-14T13:31:59;100348.81;;;22.50;31.21
74678;BME280;67324;56.326;43.982;2023-03-14T13:34:28;100355.91;;;22.50;31.33
74678;BME280;67324;56.326;43.982;2023-03-14T13:36:54;100350.66;;;22.50;31.25
74678;BME280;67324;56.326;43.982;2023-03-14T13:39:22;100344.41;;;22.51;31.19
74678;BME280;67324;56.326;43.982;2023-03-14T13:41:54;100348.81;;;22.50;31.23
74678;BME280;67324;56.326;43.982;2023-03-14T13:44:39;100345.38;;;22.50;31.25
74678;BME280;67324;56.326;43.982;2023-03-14T13:47:19;100345.38;;;22.50;31.19
74678;BME280;67324;56.326;43.982;2023-03-14T13:49:46;100350.66;;;22.50;31.24
74678;BME280;67324;56.326;43.982;2023-03-14T13:52:29;100360.22;;;22.51;31.23
74678;BME280;67324;56.326;43.982;2023-03-14T13:54:57;100357.72;;;22.49;31.25
74678;BME280;67324;56.326;43.982;2023-03-14T13:57:23;100371.72;;;22.50;31.20
74678;BME280;67324;56.326;43.982;2023-03-14T14:00:04;100368.28;;;22.49;31.19
74678;BME280;67324;56.326;43.982;2023-03-14T14:02:34;100366.47;;;22.50;31.25
74678;BME280;67324;56.326;43.982;2023-03-14T14:05:01;100375.19;;;22.50;31.23
74678;BME280;67324;56.326;43.982;2023-03-14T14:07:29;100368.94;;;22.51;31.25
74678;BME280;67324;56.326;43.982;2023-03-14T14:09:55;100365.50;;;22.51;31.27
74678;BME280;67324;56.326;43.982;2023-03-14T14:12:28;100360.22;;;22.51;31.15
74678;BME280;67324;56.326;43.982;2023-03-14T14:15:26;100357.72;;;22.49;31.21